< < Back
Terminal Aerodrome Forecast


Current Version              Previous Versions:   1  2  3  4  5  6  7  8  9  

Terminal Aerodrome Forecast

059
FTUS44 KBMX 200500
TAFTCL
TAF
KTCL 200528Z 2006/2106 00000KT P6SM BKN050
     FM201600 24005KT P6SM SCT250
     FM202200 21002KT P6SM OVC050=



Latest METAR

160
SAUS70 KWBC 202058
MTRTCL
METAR KTCL 202053Z 21005KT 10SM SCT046 OVC065 17/07 A3020 RMK AO2 SLP226
T01670067 56017


USA.gov is the U.S. government's official web portal to all federal, state and local government web resources and services.